sensor_id;sensor_type;location;lat;lon;timestamp;P1;durP1;ratioP1;P2;durP2;ratioP2
23400;SDS011;11873;49.300;8.920;2024-01-07T00:00:18;6.27;;;5.00;;
23400;SDS011;11873;49.300;8.920;2024-01-07T00:05:18;6.07;;;5.43;;
23400;SDS011;11873;49.300;8.920;2024-01-07T00:10:18;8.23;;;6.13;;
23400;SDS011;11873;49.300;8.920;2024-01-07T00:15:18;7.43;;;5.77;;
23400;SDS011;11873;49.300;8.920;2024-01-07T00:20:19;7.90;;;6.53;;
23400;SDS011;11873;49.300;8.920;2024-01-07T00:25:19;7.27;;;6.07;;
23400;SDS011;11873;49.300;8.920;2024-01-07T00:30:19;10.67;;;6.57;;
23400;SDS011;11873;49.300;8.920;2024-01-07T00:35:19;7.60;;;5.93;;
23400;SDS011;11873;49.300;8.920;2024-01-07T00:40:19;7.70;;;5.80;;
23400;SDS011;11873;49.300;8.920;2024-01-07T00:45:19;7.20;;;6.03;;
23400;SDS011;11873;49.300;8.920;2024-01-07T00:50:20;7.30;;;5.10;;
23400;SDS011;11873;49.300;8.920;2024-01-07T00:55:20;8.70;;;5.97;;
23400;SDS011;11873;49.300;8.920;2024-01-07T01:00:20;8.07;;;5.83;;
23400;SDS011;11873;49.300;8.920;2024-01-07T01:05:20;9.80;;;7.00;;
23400;SDS011;11873;49.300;8.920;2024-01-07T01:10:21;7.77;;;6.53;;
23400;SDS011;11873;49.300;8.920;2024-01-07T01:15:21;7.60;;;6.23;;
23400;SDS011;11873;49.300;8.920;2024-01-07T01:20:21;11.17;;;6.83;;
23400;SDS011;11873;49.300;8.920;2024-01-07T01:25:21;6.43;;;5.70;;
23400;SDS011;11873;49.300;8.920;2024-01-07T01:30:22;9.07;;;6.47;;
23400;SDS011;11873;49.300;8.920;2024-01-07T01:35:22;9.80;;;6.50;;
23400;SDS011;11873;49.300;8.920;2024-01-07T01:40:22;8.20;;;6.53;;
23400;SDS011;11873;49.300;8.920;2024-01-07T01:45:22;8.30;;;6.50;;
23400;SDS011;11873;49.300;8.920;2024-01-07T01:50:22;8.63;;;6.50;;
23400;SDS011;11873;49.300;8.920;2024-01-07T01:55:23;7.33;;;5.83;;
23400;SDS011;11873;49.300;8.920;2024-01-07T02:00:23;8.37;;;6.47;;
23400;SDS011;11873;49.300;8.920;2024-01-07T02:05:23;8.37;;;6.43;;
23400;SDS011;11873;49.300;8.920;2024-01-07T02:10:23;8.00;;;6.03;;
23400;SDS011;11873;49.300;8.920;2024-01-07T02:15:23;6.73;;;5.87;;
23400;SDS011;11873;49.300;8.920;2024-01-07T02:20:24;6.83;;;5.70;;
23400;SDS011;11873;49.300;8.920;2024-01-07T02:25:24;8.07;;;6.10;;
23400;SDS011;11873;49.300;8.920;2024-01-07T02:30:24;8.73;;;6.70;;
23400;SDS011;11873;49.300;8.920;2024-01-07T02:35:24;8.37;;;6.47;;
23400;SDS011;11873;49.300;8.920;2024-01-07T02:40:24;7.53;;;5.67;;
23400;SDS011;11873;49.300;8.920;2024-01-07T02:45:25;8.45;;;6.10;;
23400;SDS011;11873;49.300;8.920;2024-01-07T02:50:25;7.73;;;6.07;;
23400;SDS011;11873;49.300;8.920;2024-01-07T02:55:25;5.17;;;4.33;;
23400;SDS011;11873;49.300;8.920;2024-01-07T03:00:25;6.33;;;5.40;;
23400;SDS011;11873;49.300;8.920;2024-01-07T03:05:25;7.97;;;5.40;;
23400;SDS011;11873;49.300;8.920;2024-01-07T03:10:26;8.40;;;5.17;;
23400;SDS011;11873;49.300;8.920;2024-01-07T03:15:26;6.90;;;5.40;;
23400;SDS011;11873;49.300;8.920;2024-01-07T03:20:26;7.47;;;5.40;;
23400;SDS011;11873;49.300;8.920;2024-01-07T03:25:26;5.83;;;4.83;;
23400;SDS011;11873;49.300;8.920;2024-01-07T03:30:26;7.50;;;5.80;;
23400;SDS011;11873;49.300;8.920;2024-01-07T03:35:27;8.60;;;6.77;;
23400;SDS011;11873;49.300;8.920;2024-01-07T03:40:27;6.03;;;4.93;;
23400;SDS011;11873;49.300;8.920;2024-01-07T03:45:27;7.77;;;5.50;;
23400;SDS011;11873;49.300;8.920;2024-01-07T03:50:27;6.20;;;5.23;;
23400;SDS011;11873;49.300;8.920;2024-01-07T03:55:28;5.83;;;4.67;;
23400;SDS011;11873;49.300;8.920;2024-01-07T04:00:28;5.27;;;4.17;;
23400;SDS011;11873;49.300;8.920;2024-01-07T04:05:28;4.47;;;3.67;;
23400;SDS011;11873;49.300;8.920;2024-01-07T04:10:28;5.17;;;4.23;;
23400;SDS011;11873;49.300;8.920;2024-01-07T04:15:29;5.77;;;4.03;;
23400;SDS011;11873;49.300;8.920;2024-01-07T04:20:29;4.80;;;3.60;;
23400;SDS011;11873;49.300;8.920;2024-01-07T04:25:30;6.47;;;4.07;;
23400;SDS011;11873;49.300;8.920;2024-01-07T04:30:30;4.83;;;3.60;;
23400;SDS011;11873;49.300;8.920;2024-01-07T04:35:30;4.07;;;3.63;;
23400;SDS011;11873;49.300;8.920;2024-01-07T04:40:30;5.73;;;3.80;;
23400;SDS011;11873;49.300;8.920;2024-01-07T04:45:31;7.13;;;4.07;;
23400;SDS011;11873;49.300;8.920;2024-01-07T04:50:31;3.80;;;3.37;;
23400;SDS011;11873;49.300;8.920;2024-01-07T04:55:31;4.73;;;4.20;;
23400;SDS011;11873;49.300;8.920;2024-01-07T05:00:31;4.73;;;3.90;;
23400;SDS011;11873;49.300;8.920;2024-01-07T05:05:31;5.07;;;3.90;;
23400;SDS011;11873;49.300;8.920;2024-01-07T05:10:32;4.43;;;3.63;;
23400;SDS011;11873;49.300;8.920;2024-01-07T05:15:32;4.70;;;3.50;;
23400;SDS011;11873;49.300;8.920;2024-01-07T05:20:32;3.83;;;3.33;;
23400;SDS011;11873;49.300;8.920;2024-01-07T05:25:32;4.73;;;3.10;;
23400;SDS011;11873;49.300;8.920;2024-01-07T05:30:32;4.23;;;3.53;;
23400;SDS011;11873;49.300;8.920;2024-01-07T05:35:32;3.57;;;3.27;;
23400;SDS011;11873;49.300;8.920;2024-01-07T05:40:33;3.97;;;3.27;;
23400;SDS011;11873;49.300;8.920;2024-01-07T05:45:33;3.53;;;3.20;;
23400;SDS011;11873;49.300;8.920;2024-01-07T05:50:33;3.43;;;3.03;;
23400;SDS011;11873;49.300;8.920;2024-01-07T05:55:33;4.07;;;3.67;;
23400;SDS011;11873;49.300;8.920;2024-01-07T06:00:33;4.03;;;3.37;;
23400;SDS011;11873;49.300;8.920;2024-01-07T06:05:33;3.87;;;3.53;;
23400;SDS011;11873;49.300;8.920;2024-01-07T06:10:34;3.83;;;3.43;;
23400;SDS011;11873;49.300;8.920;2024-01-07T06:15:34;4.20;;;3.50;;
23400;SDS011;11873;49.300;8.920;2024-01-07T06:20:34;4.30;;;3.90;;
23400;SDS011;11873;49.300;8.920;2024-01-07T06:25:34;4.70;;;3.60;;
23400;SDS011;11873;49.300;8.920;2024-01-07T06:30:34;3.70;;;3.37;;
23400;SDS011;11873;49.300;8.920;2024-01-07T06:35:35;3.60;;;3.30;;
23400;SDS011;11873;49.300;8.920;2024-01-07T06:40:35;3.77;;;3.40;;
23400;SDS011;11873;49.300;8.920;2024-01-07T06:45:35;4.27;;;3.87;;
23400;SDS011;11873;49.300;8.920;2024-01-07T06:50:35;5.40;;;3.97;;
23400;SDS011;11873;49.300;8.920;2024-01-07T06:55:35;4.00;;;3.60;;
23400;SDS011;11873;49.300;8.920;2024-01-07T07:00:35;4.50;;;3.73;;
23400;SDS011;11873;49.300;8.920;2024-01-07T07:05:36;4.40;;;4.00;;
23400;SDS011;11873;49.300;8.920;2024-01-07T07:10:36;4.83;;;3.93;;
23400;SDS011;11873;49.300;8.920;2024-01-07T07:15:36;3.93;;;3.40;;
23400;SDS011;11873;49.300;8.920;2024-01-07T07:20:36;4.30;;;3.90;;
23400;SDS011;11873;49.300;8.920;2024-01-07T07:25:36;4.63;;;4.20;;
23400;SDS011;11873;49.300;8.920;2024-01-07T07:30:36;5.17;;;4.40;;
23400;SDS011;11873;49.300;8.920;2024-01-07T07:35:37;5.63;;;4.37;;
23400;SDS011;11873;49.300;8.920;2024-01-07T07:40:37;4.73;;;4.33;;
23400;SDS011;11873;49.300;8.920;2024-01-07T07:45:37;5.00;;;4.50;;
23400;SDS011;11873;49.300;8.920;2024-01-07T07:50:37;6.47;;;4.67;;
23400;SDS011;11873;49.300;8.920;2024-01-07T07:55:37;5.73;;;4.30;;
23400;SDS011;11873;49.300;8.920;2024-01-07T08:00:38;4.43;;;4.03;;
23400;SDS011;11873;49.300;8.920;2024-01-07T08:05:38;6.80;;;4.93;;
23400;SDS011;11873;49.300;8.920;2024-01-07T08:10:38;5.10;;;4.60;;
23400;SDS011;11873;49.300;8.920;2024-01-07T08:15:38;4.53;;;3.23;;
23400;SDS011;11873;49.300;8.920;2024-01-07T08:20:38;2.90;;;2.57;;
23400;SDS011;11873;49.300;8.920;2024-01-07T08:25:38;3.30;;;2.80;;
23400;SDS011;11873;49.300;8.920;2024-01-07T08:30:39;4.10;;;3.00;;
23400;SDS011;11873;49.300;8.920;2024-01-07T08:35:39;1.10;;;1.10;;
23400;SDS011;11873;49.300;8.920;2024-01-07T08:40:39;4.33;;;3.40;;
23400;SDS011;11873;49.300;8.920;2024-01-07T08:45:39;3.13;;;2.83;;
23400;SDS011;11873;49.300;8.920;2024-01-07T08:50:40;3.73;;;2.93;;
23400;SDS011;11873;49.300;8.920;2024-01-07T08:55:40;3.03;;;2.70;;
23400;SDS011;11873;49.300;8.920;2024-01-07T09:00:40;3.77;;;3.23;;
23400;SDS011;11873;49.300;8.920;2024-01-07T09:05:40;5.00;;;2.87;;
23400;SDS011;11873;49.300;8.920;2024-01-07T09:10:40;2.73;;;2.40;;
23400;SDS011;11873;49.300;8.920;2024-01-07T09:15:41;2.50;;;2.30;;
23400;SDS011;11873;49.300;8.920;2024-01-07T09:20:41;3.23;;;2.70;;
23400;SDS011;11873;49.300;8.920;2024-01-07T09:25:41;2.93;;;2.20;;
23400;SDS011;11873;49.300;8.920;2024-01-07T09:30:41;2.33;;;2.13;;
23400;SDS011;11873;49.300;8.920;2024-01-07T09:35:42;2.57;;;2.37;;
23400;SDS011;11873;49.300;8.920;2024-01-07T09:40:44;3.80;;;2.90;;
23400;SDS011;11873;49.300;8.920;2024-01-07T09:45:47;3.93;;;3.17;;
23400;SDS011;11873;49.300;8.920;2024-01-07T09:50:48;3.83;;;3.40;;
23400;SDS011;11873;49.300;8.920;2024-01-07T09:55:55;4.00;;;2.80;;
23400;SDS011;11873;49.300;8.920;2024-01-07T10:00:56;3.10;;;2.60;;
23400;SDS011;11873;49.300;8.920;2024-01-07T10:05:57;3.47;;;3.17;;
23400;SDS011;11873;49.300;8.920;2024-01-07T10:10:57;2.87;;;2.17;;
23400;SDS011;11873;49.300;8.920;2024-01-07T10:15:57;2.40;;;2.20;;
23400;SDS011;11873;49.300;8.920;2024-01-07T10:21:01;2.43;;;2.33;;
23400;SDS011;11873;49.300;8.920;2024-01-07T10:26:01;2.70;;;2.27;;
23400;SDS011;11873;49.300;8.920;2024-01-07T10:31:02;3.07;;;2.50;;
23400;SDS011;11873;49.300;8.920;2024-01-07T10:36:05;2.60;;;2.40;;
23400;SDS011;11873;49.300;8.920;2024-01-07T10:41:05;2.20;;;2.10;;
23400;SDS011;11873;49.300;8.920;2024-01-07T10:46:06;2.73;;;2.37;;
23400;SDS011;11873;49.300;8.920;2024-01-07T10:51:09;2.90;;;2.70;;
23400;SDS011;11873;49.300;8.920;2024-01-07T10:56:11;3.17;;;2.87;;
23400;SDS011;11873;49.300;8.920;2024-01-07T11:01:11;2.73;;;2.53;;
23400;SDS011;11873;49.300;8.920;2024-01-07T11:11:19;2.83;;;2.60;;
23400;SDS011;11873;49.300;8.920;2024-01-07T11:16:40;3.30;;;2.47;;
23400;SDS011;11873;49.300;8.920;2024-01-07T11:21:40;3.00;;;2.70;;
23400;SDS011;11873;49.300;8.920;2024-01-07T11:26:41;1.73;;;1.63;;
23400;SDS011;11873;49.300;8.920;2024-01-07T11:36:41;2.50;;;2.30;;
23400;SDS011;11873;49.300;8.920;2024-01-07T11:41:41;2.05;;;1.58;;
23400;SDS011;11873;49.300;8.920;2024-01-07T11:46:41;2.80;;;2.60;;
23400;SDS011;11873;49.300;8.920;2024-01-07T11:51:42;2.43;;;2.23;;
23400;SDS011;11873;49.300;8.920;2024-01-07T11:56:43;3.47;;;3.13;;
23400;SDS011;11873;49.300;8.920;2024-01-07T12:01:43;4.07;;;3.67;;
23400;SDS011;11873;49.300;8.920;2024-01-07T12:06:43;3.00;;;2.70;;
23400;SDS011;11873;49.300;8.920;2024-01-07T12:11:44;2.83;;;2.60;;
23400;SDS011;11873;49.300;8.920;2024-01-07T12:16:44;3.37;;;3.07;;
23400;SDS011;11873;49.300;8.920;2024-01-07T12:21:44;4.03;;;3.27;;
23400;SDS011;11873;49.300;8.920;2024-01-07T12:26:44;3.50;;;3.20;;
23400;SDS011;11873;49.300;8.920;2024-01-07T12:31:45;3.23;;;2.30;;
23400;SDS011;11873;49.300;8.920;2024-01-07T12:36:45;5.50;;;3.90;;
23400;SDS011;11873;49.300;8.920;2024-01-07T12:41:45;4.83;;;2.93;;
23400;SDS011;11873;49.300;8.920;2024-01-07T12:46:45;4.50;;;3.50;;
23400;SDS011;11873;49.300;8.920;2024-01-07T12:51:45;5.23;;;3.90;;
23400;SDS011;11873;49.300;8.920;2024-01-07T12:56:45;3.70;;;3.40;;
23400;SDS011;11873;49.300;8.920;2024-01-07T13:01:46;3.80;;;3.40;;
23400;SDS011;11873;49.300;8.920;2024-01-07T13:06:46;2.67;;;2.20;;
23400;SDS011;11873;49.300;8.920;2024-01-07T13:11:46;3.53;;;3.20;;
23400;SDS011;11873;49.300;8.920;2024-01-07T13:16:46;3.50;;;3.20;;
23400;SDS011;11873;49.300;8.920;2024-01-07T13:21:46;4.30;;;3.47;;
23400;SDS011;11873;49.300;8.920;2024-01-07T13:26:47;3.97;;;3.43;;
23400;SDS011;11873;49.300;8.920;2024-01-07T13:31:47;3.50;;;2.83;;
23400;SDS011;11873;49.300;8.920;2024-01-07T13:36:47;3.93;;;3.47;;
23400;SDS011;11873;49.300;8.920;2024-01-07T13:41:47;1.70;;;1.60;;
23400;SDS011;11873;49.300;8.920;2024-01-07T13:46:48;4.23;;;3.83;;
23400;SDS011;11873;49.300;8.920;2024-01-07T13:51:48;4.20;;;3.73;;
23400;SDS011;11873;49.300;8.920;2024-01-07T13:56:48;3.77;;;3.37;;
23400;SDS011;11873;49.300;8.920;2024-01-07T14:01:48;0.80;;;0.80;;
23400;SDS011;11873;49.300;8.920;2024-01-07T14:06:53;1.80;;;1.40;;
23400;SDS011;11873;49.300;8.920;2024-01-07T14:11:53;4.37;;;3.97;;
23400;SDS011;11873;49.300;8.920;2024-01-07T14:16:53;2.30;;;2.10;;
23400;SDS011;11873;49.300;8.920;2024-01-07T14:21:53;2.80;;;2.60;;
23400;SDS011;11873;49.300;8.920;2024-01-07T14:26:53;3.87;;;3.57;;
23400;SDS011;11873;49.300;8.920;2024-01-07T14:31:57;4.20;;;3.57;;
23400;SDS011;11873;49.300;8.920;2024-01-07T14:36:57;3.70;;;3.40;;
23400;SDS011;11873;49.300;8.920;2024-01-07T14:41:58;2.87;;;2.67;;
23400;SDS011;11873;49.300;8.920;2024-01-07T14:46:58;3.00;;;2.80;;
23400;SDS011;11873;49.300;8.920;2024-01-07T14:51:58;5.13;;;4.20;;
23400;SDS011;11873;49.300;8.920;2024-01-07T14:56:58;4.37;;;3.90;;
23400;SDS011;11873;49.300;8.920;2024-01-07T15:01:58;5.10;;;4.20;;
23400;SDS011;11873;49.300;8.920;2024-01-07T15:06:59;4.43;;;3.37;;
23400;SDS011;11873;49.300;8.920;2024-01-07T15:11:59;5.20;;;3.97;;
23400;SDS011;11873;49.300;8.920;2024-01-07T15:16:59;3.60;;;3.30;;
23400;SDS011;11873;49.300;8.920;2024-01-07T15:21:59;3.67;;;2.77;;
23400;SDS011;11873;49.300;8.920;2024-01-07T15:26:59;4.60;;;4.20;;
23400;SDS011;11873;49.300;8.920;2024-01-07T15:31:59;3.63;;;2.63;;
23400;SDS011;11873;49.300;8.920;2024-01-07T15:37:00;4.30;;;3.37;;
23400;SDS011;11873;49.300;8.920;2024-01-07T15:42:00;4.00;;;2.27;;
23400;SDS011;11873;49.300;8.920;2024-01-07T15:47:00;4.60;;;3.50;;
23400;SDS011;11873;49.300;8.920;2024-01-07T15:52:00;3.37;;;3.07;;
23400;SDS011;11873;49.300;8.920;2024-01-07T15:57:01;4.53;;;4.13;;
23400;SDS011;11873;49.300;8.920;2024-01-07T16:02:01;5.67;;;3.67;;
23400;SDS011;11873;49.300;8.920;2024-01-07T16:07:01;3.33;;;3.03;;
23400;SDS011;11873;49.300;8.920;2024-01-07T16:12:02;3.90;;;3.60;;
23400;SDS011;11873;49.300;8.920;2024-01-07T16:17:02;3.17;;;2.07;;
23400;SDS011;11873;49.300;8.920;2024-01-07T16:22:02;4.03;;;3.37;;
23400;SDS011;11873;49.300;8.920;2024-01-07T16:27:02;3.73;;;3.33;;
23400;SDS011;11873;49.300;8.920;2024-01-07T16:32:03;3.20;;;2.90;;
23400;SDS011;11873;49.300;8.920;2024-01-07T16:37:03;4.10;;;3.37;;
23400;SDS011;11873;49.300;8.920;2024-01-07T16:42:03;4.63;;;3.60;;
23400;SDS011;11873;49.300;8.920;2024-01-07T16:47:03;4.80;;;3.47;;
23400;SDS011;11873;49.300;8.920;2024-01-07T16:52:04;5.53;;;3.80;;
23400;SDS011;11873;49.300;8.920;2024-01-07T16:57:04;3.83;;;3.37;;
23400;SDS011;11873;49.300;8.920;2024-01-07T17:02:04;3.43;;;3.13;;
23400;SDS011;11873;49.300;8.920;2024-01-07T17:07:05;3.87;;;3.07;;
23400;SDS011;11873;49.300;8.920;2024-01-07T17:12:05;5.60;;;3.57;;
23400;SDS011;11873;49.300;8.920;2024-01-07T17:17:05;3.80;;;2.90;;
23400;SDS011;11873;49.300;8.920;2024-01-07T17:22:05;5.07;;;3.03;;
23400;SDS011;11873;49.300;8.920;2024-01-07T17:27:06;2.63;;;2.43;;
23400;SDS011;11873;49.300;8.920;2024-01-07T17:32:06;2.53;;;2.33;;
23400;SDS011;11873;49.300;8.920;2024-01-07T17:37:06;3.17;;;2.87;;
23400;SDS011;11873;49.300;8.920;2024-01-07T17:42:06;4.30;;;2.90;;
23400;SDS011;11873;49.300;8.920;2024-01-07T17:47:06;4.03;;;3.23;;
23400;SDS011;11873;49.300;8.920;2024-01-07T17:52:06;1.80;;;1.47;;
23400;SDS011;11873;49.300;8.920;2024-01-07T17:57:06;3.53;;;1.90;;
23400;SDS011;11873;49.300;8.920;2024-01-07T18:02:07;1.80;;;1.60;;
23400;SDS011;11873;49.300;8.920;2024-01-07T18:07:07;3.17;;;2.10;;
23400;SDS011;11873;49.300;8.920;2024-01-07T18:12:07;1.83;;;1.73;;
23400;SDS011;11873;49.300;8.920;2024-01-07T18:17:07;1.83;;;1.73;;
23400;SDS011;11873;49.300;8.920;2024-01-07T18:22:07;0.93;;;0.93;;
23400;SDS011;11873;49.300;8.920;2024-01-07T18:27:08;2.73;;;2.43;;
23400;SDS011;11873;49.300;8.920;2024-01-07T18:32:08;1.87;;;1.77;;
23400;SDS011;11873;49.300;8.920;2024-01-07T18:37:08;1.87;;;1.77;;
23400;SDS011;11873;49.300;8.920;2024-01-07T18:42:09;1.27;;;1.17;;
23400;SDS011;11873;49.300;8.920;2024-01-07T18:47:09;1.07;;;1.07;;
23400;SDS011;11873;49.300;8.920;2024-01-07T18:52:09;2.13;;;1.57;;
23400;SDS011;11873;49.300;8.920;2024-01-07T18:57:09;1.40;;;1.30;;
23400;SDS011;11873;49.300;8.920;2024-01-07T19:02:09;1.47;;;1.37;;
23400;SDS011;11873;49.300;8.920;2024-01-07T19:07:09;1.50;;;1.40;;
23400;SDS011;11873;49.300;8.920;2024-01-07T19:12:10;1.10;;;1.00;;
23400;SDS011;11873;49.300;8.920;2024-01-07T19:17:10;1.10;;;1.10;;
23400;SDS011;11873;49.300;8.920;2024-01-07T19:22:10;2.00;;;1.80;;
23400;SDS011;11873;49.300;8.920;2024-01-07T19:27:10;1.80;;;1.50;;
23400;SDS011;11873;49.300;8.920;2024-01-07T19:32:11;1.60;;;1.50;;
23400;SDS011;11873;49.300;8.920;2024-01-07T19:37:11;1.70;;;1.60;;
23400;SDS011;11873;49.300;8.920;2024-01-07T19:42:11;2.20;;;1.30;;
23400;SDS011;11873;49.300;8.920;2024-01-07T19:47:12;2.07;;;1.90;;
23400;SDS011;11873;49.300;8.920;2024-01-07T19:52:12;1.50;;;1.50;;
23400;SDS011;11873;49.300;8.920;2024-01-07T19:57:12;1.67;;;1.57;;
23400;SDS011;11873;49.300;8.920;2024-01-07T20:02:12;2.20;;;1.43;;
23400;SDS011;11873;49.300;8.920;2024-01-07T20:07:12;1.80;;;1.70;;
23400;SDS011;11873;49.300;8.920;2024-01-07T20:12:13;1.92;;;1.75;;
23400;SDS011;11873;49.300;8.920;2024-01-07T20:17:13;1.90;;;1.70;;
23400;SDS011;11873;49.300;8.920;2024-01-07T20:22:13;1.60;;;1.50;;
23400;SDS011;11873;49.300;8.920;2024-01-07T20:27:13;1.47;;;1.37;;
23400;SDS011;11873;49.300;8.920;2024-01-07T20:32:13;1.70;;;1.60;;
23400;SDS011;11873;49.300;8.920;2024-01-07T20:37:14;1.50;;;1.37;;
23400;SDS011;11873;49.300;8.920;2024-01-07T20:42:14;0.80;;;0.80;;
23400;SDS011;11873;49.300;8.920;2024-01-07T20:47:14;1.20;;;1.20;;
23400;SDS011;11873;49.300;8.920;2024-01-07T20:52:14;1.47;;;1.37;;
23400;SDS011;11873;49.300;8.920;2024-01-07T20:57:14;0.90;;;0.90;;
23400;SDS011;11873;49.300;8.920;2024-01-07T21:02:14;1.77;;;1.67;;
23400;SDS011;11873;49.300;8.920;2024-01-07T21:07:15;1.90;;;1.80;;
23400;SDS011;11873;49.300;8.920;2024-01-07T21:12:15;2.03;;;1.80;;
23400;SDS011;11873;49.300;8.920;2024-01-07T21:17:15;1.20;;;1.10;;
23400;SDS011;11873;49.300;8.920;2024-01-07T21:22:15;1.10;;;1.00;;
23400;SDS011;11873;49.300;8.920;2024-01-07T21:27:15;1.43;;;1.20;;
23400;SDS011;11873;49.300;8.920;2024-01-07T21:32:15;1.40;;;1.30;;
23400;SDS011;11873;49.300;8.920;2024-01-07T21:37:16;0.80;;;0.80;;
23400;SDS011;11873;49.300;8.920;2024-01-07T21:42:16;1.30;;;1.20;;
23400;SDS011;11873;49.300;8.920;2024-01-07T21:47:16;1.33;;;1.30;;
23400;SDS011;11873;49.300;8.920;2024-01-07T21:52:17;1.30;;;1.20;;
23400;SDS011;11873;49.300;8.920;2024-01-07T21:57:17;1.20;;;1.20;;
23400;SDS011;11873;49.300;8.920;2024-01-07T22:02:17;1.33;;;1.27;;
23400;SDS011;11873;49.300;8.920;2024-01-07T22:07:17;1.47;;;1.37;;
23400;SDS011;11873;49.300;8.920;2024-01-07T22:12:17;1.37;;;1.27;;
23400;SDS011;11873;49.300;8.920;2024-01-07T22:17:18;1.50;;;1.40;;
23400;SDS011;11873;49.300;8.920;2024-01-07T22:22:18;1.43;;;1.33;;
23400;SDS011;11873;49.300;8.920;2024-01-07T22:27:18;1.50;;;1.37;;
23400;SDS011;11873;49.300;8.920;2024-01-07T22:32:18;1.67;;;1.57;;
23400;SDS011;11873;49.300;8.920;2024-01-07T22:37:18;1.23;;;1.13;;
23400;SDS011;11873;49.300;8.920;2024-01-07T22:42:19;1.60;;;1.50;;
23400;SDS011;11873;49.300;8.920;2024-01-07T22:47:19;1.50;;;1.40;;
23400;SDS011;11873;49.300;8.920;2024-01-07T22:52:19;1.67;;;1.57;;
23400;SDS011;11873;49.300;8.920;2024-01-07T22:57:19;1.43;;;1.33;;
23400;SDS011;11873;49.300;8.920;2024-01-07T23:02:19;1.60;;;1.50;;
23400;SDS011;11873;49.300;8.920;2024-01-07T23:07:19;1.70;;;1.60;;
23400;SDS011;11873;49.300;8.920;2024-01-07T23:12:20;1.40;;;1.30;;
23400;SDS011;11873;49.300;8.920;2024-01-07T23:17:20;1.37;;;1.37;;
23400;SDS011;11873;49.300;8.920;2024-01-07T23:22:20;1.57;;;1.47;;
23400;SDS011;11873;49.300;8.920;2024-01-07T23:27:20;2.17;;;1.97;;
23400;SDS011;11873;49.300;8.920;2024-01-07T23:32:20;3.47;;;1.80;;
23400;SDS011;11873;49.300;8.920;2024-01-07T23:37:21;1.87;;;1.77;;
23400;SDS011;11873;49.300;8.920;2024-01-07T23:42:21;1.90;;;1.80;;
23400;SDS011;11873;49.300;8.920;2024-01-07T23:47:21;2.07;;;1.97;;
23400;SDS011;11873;49.300;8.920;2024-01-07T23:52:21;1.70;;;1.60;;
23400;SDS011;11873;49.300;8.920;2024-01-07T23:57:21;1.70;;;1.60;;
